MZU weather

Muzaffarpur Airport
Bihar, India

Public forecast

Using degrees Celsius for public forecast. Weather courtesy of forecast.io.

METAR (pilot weather report)

Closest report is Lok Nayak Jayaprakash Airport, 34.0 nm (62.9 km) SSW. Retrieved 2018/12/18 16:30 UTC (0 seconds ago):

VEPT 181630Z 18003KT 1600 BR FEW100 15/14 Q1017 NOSIG

TAF (pilot weather forecast)

Closest forecast is Lok Nayak Jayaprakash Airport, 34.0 nm (62.9 km) SSW. Retrieved 2018/12/18 12:39 UTC (4 hours ago):

TAF VEPT 181100Z 1812/1918 00000KT 2000 HZ SCT020 BKN100 BECMG 1816/1818 1500 BR BECMG 1900/1902 0800 FG SCT020 SCT100 BECMG 1905/1907 23004KT 1800 HZ/BR SCT020 SCT250 BECMG 1910/1912 2500 HZ FEW020 SCT250 BECMG 1916/1918 00000KT 2000 HZ